createdAt,value
2022-09-30T00:01:44.578Z,10.18
2022-09-30T00:04:18.662Z,10.17
2022-09-30T00:06:45.691Z,10.13
2022-09-30T00:09:13.096Z,10.13
2022-09-30T00:11:41.978Z,10.13
2022-09-30T00:14:16.133Z,10.09
2022-09-30T00:16:44.050Z,10.06
2022-09-30T00:19:11.408Z,10.03
2022-09-30T00:21:38.748Z,10.00
2022-09-30T00:24:07.030Z,9.90
2022-09-30T00:26:35.842Z,9.86
2022-09-30T00:29:04.184Z,9.85
2022-09-30T00:31:34.865Z,9.81
2022-09-30T00:34:09.698Z,9.76
2022-09-30T00:36:40.210Z,9.73
2022-09-30T00:39:10.415Z,9.70
2022-09-30T00:41:37.825Z,9.64
2022-09-30T00:44:44.407Z,9.57
2022-09-30T00:47:52.017Z,9.54
2022-09-30T00:50:42.652Z,9.46
2022-09-30T00:53:22.574Z,9.38
2022-09-30T00:56:07.690Z,9.26
2022-09-30T00:58:45.817Z,9.26
2022-09-30T01:01:13.043Z,9.21
2022-09-30T01:04:01.401Z,9.12
2022-09-30T01:06:29.115Z,9.13
2022-09-30T01:08:58.387Z,9.13
2022-09-30T01:11:28.804Z,9.13
2022-09-30T01:14:01.975Z,9.18
2022-09-30T01:17:28.188Z,9.23
2022-09-30T01:20:52.143Z,9.27
2022-09-30T01:24:03.652Z,9.27
2022-09-30T01:27:00.988Z,9.30
2022-09-30T01:30:15.694Z,9.32
2022-09-30T01:33:04.425Z,9.27
2022-09-30T01:36:00.010Z,9.20
2022-09-30T01:38:56.321Z,9.15
2022-09-30T01:41:25.746Z,9.13
2022-09-30T01:44:12.934Z,9.12
2022-09-30T01:47:05.899Z,9.12
2022-09-30T01:49:56.693Z,9.13
2022-09-30T01:52:45.048Z,9.14
2022-09-30T01:55:32.621Z,9.13
2022-09-30T01:58:16.146Z,9.15
2022-09-30T02:00:49.857Z,9.15
2022-09-30T02:03:33.821Z,9.14
2022-09-30T02:06:09.136Z,9.09
2022-09-30T02:08:41.339Z,9.09
2022-09-30T02:11:26.658Z,9.04
2022-09-30T02:14:38.824Z,8.98
2022-09-30T02:17:21.764Z,8.95
2022-09-30T02:20:00.857Z,8.93
2022-09-30T02:22:43.398Z,8.88
2022-09-30T02:25:34.560Z,8.81
2022-09-30T02:28:08.189Z,8.75
2022-09-30T02:30:38.580Z,8.74
2022-09-30T02:33:13.104Z,8.71
2022-09-30T02:35:48.877Z,8.69
2022-09-30T02:38:22.449Z,8.72
2022-09-30T02:41:06.391Z,8.75
2022-09-30T02:43:34.350Z,8.75
2022-09-30T02:46:27.734Z,8.74
2022-09-30T02:49:25.060Z,8.78
2022-09-30T02:52:12.914Z,8.82
2022-09-30T02:55:24.155Z,8.81
2022-09-30T02:58:11.252Z,8.79
2022-09-30T03:00:38.436Z,8.84
2022-09-30T03:03:25.731Z,8.84
2022-09-30T03:05:52.841Z,8.88
2022-09-30T03:08:20.114Z,8.93
2022-09-30T03:10:52.929Z,8.93
2022-09-30T03:13:38.347Z,8.98
2022-09-30T03:16:21.980Z,8.99
2022-09-30T03:19:16.726Z,9.05
2022-09-30T03:22:04.314Z,9.03
2022-09-30T03:25:17.404Z,9.04
2022-09-30T03:28:07.720Z,9.04
2022-09-30T03:30:49.319Z,9.04
2022-09-30T03:33:52.680Z,9.01
2022-09-30T03:36:55.042Z,9.01
2022-09-30T03:39:59.897Z,9.00
2022-09-30T03:42:39.369Z,8.99
2022-09-30T03:45:27.961Z,9.01
2022-09-30T03:48:01.604Z,8.98
2022-09-30T03:50:31.323Z,8.96
2022-09-30T03:52:58.591Z,8.93
2022-09-30T03:55:26.340Z,8.91
2022-09-30T03:57:54.396Z,8.91
2022-09-30T04:00:21.688Z,8.90
2022-09-30T04:02:48.555Z,8.85
2022-09-30T04:05:15.638Z,8.91
2022-09-30T04:07:42.504Z,8.92
2022-09-30T04:10:09.981Z,8.87
2022-09-30T04:12:37.366Z,8.91
2022-09-30T04:15:05.232Z,8.89
2022-09-30T04:17:32.138Z,8.90
2022-09-30T04:19:59.050Z,8.88
2022-09-30T04:22:26.687Z,8.87
2022-09-30T04:24:53.720Z,8.87
2022-09-30T04:27:20.614Z,8.85
2022-09-30T04:29:47.546Z,8.78
2022-09-30T04:32:14.436Z,8.79
2022-09-30T04:34:41.559Z,8.75
2022-09-30T04:37:11.062Z,8.76
2022-09-30T04:39:38.220Z,8.76
2022-09-30T04:42:06.488Z,8.72
2022-09-30T04:44:34.145Z,8.71
2022-09-30T04:47:01.053Z,8.67
2022-09-30T04:49:28.011Z,8.64
2022-09-30T04:51:55.414Z,8.57
2022-09-30T04:54:22.435Z,8.54
2022-09-30T04:56:49.657Z,8.52
2022-09-30T04:59:16.537Z,8.51
2022-09-30T05:01:44.545Z,8.46
2022-09-30T05:04:16.203Z,8.45
2022-09-30T05:06:43.123Z,8.48
2022-09-30T05:09:10.051Z,8.42
2022-09-30T05:11:42.223Z,8.40
2022-09-30T05:14:09.506Z,8.33
2022-09-30T05:16:36.508Z,8.30
2022-09-30T05:19:03.951Z,8.30
2022-09-30T05:21:30.826Z,8.22
2022-09-30T05:23:58.428Z,8.25
2022-09-30T05:26:25.346Z,8.26
2022-09-30T05:28:52.730Z,8.25
2022-09-30T05:31:20.894Z,8.24
2022-09-30T05:33:48.019Z,8.21
2022-09-30T05:36:16.498Z,8.18
2022-09-30T05:38:43.930Z,8.17
2022-09-30T05:41:15.754Z,8.15
2022-09-30T05:43:53.032Z,8.08
2022-09-30T05:46:20.881Z,8.08
2022-09-30T05:48:47.801Z,8.03
2022-09-30T05:51:14.771Z,8.03
2022-09-30T05:53:42.166Z,8.05
2022-09-30T05:56:10.471Z,8.04
2022-09-30T05:58:38.638Z,8.09
2022-09-30T06:01:13.083Z,8.16
2022-09-30T06:03:42.054Z,8.23
2022-09-30T06:06:09.538Z,8.31
2022-09-30T06:08:36.628Z,8.39
2022-09-30T06:11:11.867Z,8.44
2022-09-30T06:13:40.723Z,8.51
2022-09-30T06:16:09.143Z,8.53
2022-09-30T06:18:36.556Z,8.57
2022-09-30T06:21:05.197Z,8.62
2022-09-30T06:23:35.063Z,8.69
2022-09-30T06:26:04.664Z,8.76
2022-09-30T06:28:35.069Z,8.87
2022-09-30T06:31:06.977Z,9.01
2022-09-30T06:33:34.672Z,9.12
2022-09-30T06:36:04.406Z,9.19
2022-09-30T06:38:33.191Z,9.28
2022-09-30T06:41:00.878Z,9.37
2022-09-30T06:43:28.297Z,9.45
2022-09-30T06:46:05.963Z,9.52
2022-09-30T06:48:40.462Z,9.63
2022-09-30T06:51:10.401Z,9.77
2022-09-30T06:53:40.066Z,9.87
2022-09-30T06:56:07.048Z,9.99
2022-09-30T06:58:33.947Z,10.12
2022-09-30T07:01:04.528Z,10.25
2022-09-30T07:03:34.614Z,10.45
2022-09-30T07:06:04.821Z,10.58
2022-09-30T07:08:34.056Z,10.64
2022-09-30T07:11:14.314Z,10.72
2022-09-30T07:13:43.342Z,10.87
2022-09-30T07:16:12.116Z,11.00
2022-09-30T07:18:42.190Z,11.13
2022-09-30T07:21:10.644Z,11.25
2022-09-30T07:23:37.582Z,11.37
2022-09-30T07:26:05.832Z,11.45
2022-09-30T07:28:39.286Z,11.52
2022-09-30T07:31:33.029Z,11.61
2022-09-30T07:33:59.746Z,11.68
2022-09-30T07:36:32.504Z,11.74
2022-09-30T07:39:06.555Z,11.84
2022-09-30T07:41:37.027Z,11.90
2022-09-30T07:44:06.238Z,11.94
2022-09-30T07:46:39.002Z,12.10
2022-09-30T07:49:12.415Z,12.19
2022-09-30T07:51:45.045Z,12.26
2022-09-30T07:54:18.746Z,12.30
2022-09-30T07:59:38.940Z,12.52
2022-09-30T08:02:10.704Z,12.65
2022-09-30T08:04:42.923Z,12.76
2022-09-30T08:07:11.394Z,12.80
2022-09-30T08:09:38.515Z,12.91
2022-09-30T08:12:05.600Z,13.04
2022-09-30T08:14:33.034Z,13.26
2022-09-30T08:17:00.440Z,13.44
2022-09-30T08:19:30.233Z,13.46
2022-09-30T08:21:57.921Z,13.43
2022-09-30T08:24:26.374Z,13.52
2022-09-30T08:26:54.392Z,13.56
2022-09-30T08:29:36.085Z,13.53
2022-09-30T08:32:08.898Z,13.63
2022-09-30T08:34:36.103Z,13.80
2022-09-30T08:37:08.686Z,13.97
2022-09-30T08:39:39.935Z,14.21
2022-09-30T08:42:41.376Z,14.45
2022-09-30T08:45:37.542Z,14.54
2022-09-30T08:48:19.773Z,14.61
2022-09-30T08:51:05.273Z,14.60
2022-09-30T08:53:39.023Z,14.79
2022-09-30T08:56:07.508Z,14.94
2022-09-30T08:58:39.290Z,15.16
2022-09-30T09:01:26.477Z,15.43
2022-09-30T09:03:54.451Z,15.56
2022-09-30T09:06:53.052Z,15.76
2022-09-30T09:09:49.992Z,15.98
2022-09-30T09:12:40.935Z,16.05
2022-09-30T09:15:23.218Z,16.03
2022-09-30T09:18:34.891Z,15.94
2022-09-30T09:21:47.735Z,15.99
2022-09-30T09:24:20.137Z,16.08
2022-09-30T09:26:48.347Z,16.16
2022-09-30T09:29:36.652Z,16.24
2022-09-30T09:32:14.337Z,16.25
2022-09-30T09:34:41.728Z,16.38
2022-09-30T09:37:59.530Z,16.63
2022-09-30T09:40:38.373Z,16.63
2022-09-30T09:43:23.778Z,16.58
2022-09-30T09:46:14.937Z,16.65
2022-09-30T09:48:42.603Z,16.77
2022-09-30T09:51:33.387Z,16.86
2022-09-30T09:54:02.281Z,17.06
2022-09-30T09:56:32.463Z,17.23
2022-09-30T09:59:12.523Z,17.41
2022-09-30T10:01:53.497Z,17.30
2022-09-30T10:04:27.640Z,17.28
2022-09-30T10:07:00.907Z,17.46
2022-09-30T10:09:36.105Z,17.52
2022-09-30T10:12:05.662Z,17.57
2022-09-30T10:14:36.241Z,17.74
2022-09-30T10:17:05.794Z,17.98
2022-09-30T10:19:34.991Z,18.21
2022-09-30T10:22:11.859Z,18.27
2022-09-30T10:24:40.053Z,18.19
2022-09-30T10:27:34.377Z,18.06
2022-09-30T10:30:01.812Z,17.96
2022-09-30T10:32:29.390Z,18.19
2022-09-30T10:35:23.762Z,18.36
2022-09-30T10:37:54.909Z,18.41
2022-09-30T10:40:30.465Z,18.49
2022-09-30T10:42:58.332Z,18.46
2022-09-30T10:45:36.656Z,18.64
2022-09-30T10:48:15.776Z,18.72
2022-09-30T10:50:53.929Z,18.78
2022-09-30T10:53:25.113Z,18.72
2022-09-30T10:55:54.444Z,18.72
2022-09-30T10:58:40.049Z,18.74
2022-09-30T11:01:38.789Z,19.01
2022-09-30T11:04:26.473Z,19.37
2022-09-30T11:07:14.839Z,19.41
2022-09-30T11:09:54.717Z,19.35
2022-09-30T11:12:47.470Z,19.22
2022-09-30T11:15:29.186Z,19.29
2022-09-30T11:18:43.218Z,19.45
2022-09-30T11:21:20.064Z,19.60
2022-09-30T11:24:15.525Z,19.56
2022-09-30T11:27:09.506Z,19.72
2022-09-30T11:30:18.062Z,19.69
2022-09-30T11:33:14.777Z,19.75
2022-09-30T11:36:02.902Z,19.75
2022-09-30T11:39:04.921Z,19.51
2022-09-30T11:41:55.284Z,19.61
2022-09-30T11:44:44.714Z,19.43
2022-09-30T11:47:50.321Z,18.85
2022-09-30T11:50:52.649Z,18.62
2022-09-30T11:54:02.160Z,18.42
2022-09-30T11:57:04.577Z,18.36
2022-09-30T12:00:07.889Z,18.18
2022-09-30T12:02:50.174Z,18.17
2022-09-30T12:05:31.031Z,18.36
2022-09-30T12:08:07.151Z,18.29
2022-09-30T12:10:44.264Z,18.32
2022-09-30T12:13:18.479Z,18.43
2022-09-30T12:15:48.172Z,18.65
2022-09-30T12:18:21.337Z,18.90
2022-09-30T12:20:55.612Z,19.01
2022-09-30T12:23:58.100Z,19.22
2022-09-30T12:26:26.001Z,19.16
2022-09-30T12:29:19.414Z,19.04
2022-09-30T12:32:11.993Z,18.83
2022-09-30T12:35:20.504Z,18.97
2022-09-30T12:38:22.353Z,19.28
2022-09-30T12:41:37.127Z,19.55
2022-09-30T12:44:40.969Z,19.61
2022-09-30T12:47:28.233Z,19.57
2022-09-30T12:49:59.086Z,19.36
2022-09-30T12:52:31.997Z,18.96
2022-09-30T12:55:18.831Z,18.69
2022-09-30T12:57:47.950Z,18.43
2022-09-30T13:00:19.496Z,18.60
2022-09-30T13:02:55.415Z,18.89
2022-09-30T13:05:31.832Z,19.29
2022-09-30T13:08:04.884Z,19.53
2022-09-30T13:10:34.493Z,19.59
2022-09-30T13:13:13.259Z,19.67
2022-09-30T13:15:45.837Z,19.70
2022-09-30T13:18:26.805Z,19.90
2022-09-30T13:21:06.614Z,20.20
2022-09-30T13:23:43.271Z,20.43
2022-09-30T13:26:34.402Z,20.57
2022-09-30T13:29:01.395Z,20.44
2022-09-30T13:31:32.229Z,20.21
2022-09-30T13:34:02.206Z,19.94
2022-09-30T13:36:35.877Z,19.95
2022-09-30T13:39:25.530Z,19.64
2022-09-30T13:41:58.550Z,19.41
2022-09-30T13:45:03.759Z,19.32
2022-09-30T13:47:48.087Z,19.39
2022-09-30T13:50:31.674Z,19.48
2022-09-30T13:53:16.978Z,19.51
2022-09-30T13:55:50.843Z,19.49
2022-09-30T13:59:15.982Z,19.67
2022-09-30T14:02:09.200Z,19.57
2022-09-30T14:05:20.706Z,19.71
2022-09-30T14:08:02.967Z,19.72
2022-09-30T14:11:15.365Z,19.48
2022-09-30T14:14:06.200Z,19.29
2022-09-30T14:17:05.246Z,19.22
2022-09-30T14:20:10.146Z,19.25
2022-09-30T14:22:37.929Z,19.33
2022-09-30T14:25:14.687Z,19.27
2022-09-30T14:27:55.451Z,19.21
2022-09-30T14:30:25.367Z,19.15
2022-09-30T14:33:10.761Z,19.11
2022-09-30T14:35:41.403Z,19.25
2022-09-30T14:38:21.272Z,19.10
2022-09-30T14:40:57.270Z,19.22
2022-09-30T14:43:37.771Z,19.38
2022-09-30T14:46:26.746Z,19.38
2022-09-30T14:48:58.891Z,19.43
2022-09-30T14:51:27.402Z,19.47
2022-09-30T14:54:01.945Z,19.44
2022-09-30T14:56:33.581Z,19.45
2022-09-30T14:59:19.456Z,19.37
2022-09-30T15:02:00.705Z,19.28
2022-09-30T15:04:39.186Z,19.24
2022-09-30T15:07:11.689Z,19.05
2022-09-30T15:09:46.038Z,18.76
2022-09-30T15:12:22.928Z,18.64
2022-09-30T15:14:55.704Z,18.62
2022-09-30T15:17:38.497Z,18.54
2022-09-30T15:20:24.134Z,18.68
2022-09-30T15:22:54.468Z,18.67
2022-09-30T15:25:22.542Z,18.63
2022-09-30T15:27:50.114Z,18.65
2022-09-30T15:30:19.997Z,18.75
2022-09-30T15:32:50.285Z,18.76
2022-09-30T15:35:24.012Z,18.69
2022-09-30T15:37:52.461Z,18.69
2022-09-30T15:40:41.601Z,18.64
2022-09-30T15:43:33.123Z,18.44
2022-09-30T15:46:29.357Z,18.35
2022-09-30T15:49:03.094Z,18.26
2022-09-30T15:51:42.505Z,18.30
2022-09-30T15:54:15.383Z,18.33
2022-09-30T15:56:43.586Z,18.28
2022-09-30T15:59:14.711Z,18.25
2022-09-30T16:01:48.957Z,18.13
2022-09-30T16:04:15.839Z,18.05
2022-09-30T16:06:56.916Z,17.98
2022-09-30T16:09:39.629Z,17.94
2022-09-30T16:12:30.496Z,17.90
2022-09-30T16:15:14.209Z,17.85
2022-09-30T16:17:47.726Z,17.68
2022-09-30T16:20:14.637Z,17.59
2022-09-30T16:22:41.542Z,17.49
2022-09-30T16:25:30.847Z,17.44
2022-09-30T16:28:14.963Z,17.38
2022-09-30T16:30:49.567Z,17.34
2022-09-30T16:33:26.040Z,17.25
2022-09-30T16:35:53.058Z,17.15
2022-09-30T16:38:20.090Z,17.10
2022-09-30T16:40:47.418Z,17.03
2022-09-30T16:43:14.447Z,16.94
2022-09-30T16:45:42.380Z,16.82
2022-09-30T16:48:16.669Z,16.73
2022-09-30T16:50:46.058Z,16.63
2022-09-30T16:53:13.786Z,16.56
2022-09-30T16:55:41.248Z,16.48
2022-09-30T16:58:12.739Z,16.36
2022-09-30T17:00:46.736Z,16.32
2022-09-30T17:03:17.192Z,16.27
2022-09-30T17:05:46.563Z,16.21
2022-09-30T17:08:17.000Z,16.17
2022-09-30T17:10:47.409Z,16.08
2022-09-30T17:13:17.160Z,15.96
2022-09-30T17:15:49.841Z,15.94
2022-09-30T17:18:17.381Z,15.88
2022-09-30T17:20:48.994Z,15.79
2022-09-30T17:23:15.962Z,15.71
2022-09-30T17:25:43.276Z,15.66
2022-09-30T17:28:12.166Z,15.54
2022-09-30T17:30:41.180Z,15.38
2022-09-30T17:33:11.625Z,15.29
2022-09-30T17:35:39.143Z,15.18
2022-09-30T17:38:13.424Z,15.13
2022-09-30T17:40:59.204Z,15.08
2022-09-30T17:43:26.517Z,15.05
2022-09-30T17:45:55.417Z,14.95
2022-09-30T17:48:22.629Z,14.81
2022-09-30T17:50:49.561Z,14.69
2022-09-30T17:53:18.934Z,14.59
2022-09-30T17:55:48.049Z,14.51
2022-09-30T17:58:19.156Z,14.47
2022-09-30T18:00:47.031Z,14.39
2022-09-30T18:03:14.016Z,14.39
2022-09-30T18:05:41.031Z,14.34
2022-09-30T18:08:07.929Z,14.27
2022-09-30T18:10:37.608Z,14.21
2022-09-30T18:13:05.285Z,14.19
2022-09-30T18:15:32.445Z,14.05
2022-09-30T18:17:59.344Z,13.94
2022-09-30T18:20:26.578Z,13.86
2022-09-30T18:22:53.645Z,13.78
2022-09-30T18:25:20.657Z,13.76
2022-09-30T18:27:53.596Z,13.74
2022-09-30T18:30:21.588Z,13.70
2022-09-30T18:32:52.011Z,13.66
2022-09-30T18:35:22.141Z,13.62
2022-09-30T18:37:50.072Z,13.61
2022-09-30T18:40:22.853Z,13.53
2022-09-30T18:42:59.157Z,13.45
2022-09-30T18:45:31.847Z,13.39
2022-09-30T18:48:00.467Z,13.38
2022-09-30T18:50:30.064Z,13.34
2022-09-30T18:52:58.098Z,13.30
2022-09-30T18:55:25.422Z,13.25
2022-09-30T18:57:55.960Z,13.19
2022-09-30T19:00:22.918Z,13.15
2022-09-30T19:02:52.357Z,13.10
2022-09-30T19:05:19.537Z,13.04
2022-09-30T19:07:46.417Z,13.01
2022-09-30T19:10:13.636Z,13.03
2022-09-30T19:12:44.459Z,13.03
2022-09-30T19:15:17.623Z,13.01
2022-09-30T19:17:45.551Z,12.96
2022-09-30T19:20:15.246Z,12.93
2022-09-30T19:22:42.465Z,12.91
2022-09-30T19:25:11.757Z,12.89
2022-09-30T19:27:41.173Z,12.87
2022-09-30T19:30:11.418Z,12.78
2022-09-30T19:32:38.944Z,12.75
2022-09-30T19:35:10.361Z,12.74
2022-09-30T19:37:40.500Z,12.70
2022-09-30T19:40:20.931Z,12.66
2022-09-30T19:42:50.194Z,12.64
2022-09-30T19:45:19.251Z,12.58
2022-09-30T19:47:47.690Z,12.58
2022-09-30T19:50:14.621Z,12.51
2022-09-30T19:52:52.013Z,12.46
2022-09-30T19:55:20.980Z,12.39
2022-09-30T19:57:47.853Z,12.29
2022-09-30T20:00:14.785Z,12.26
2022-09-30T20:02:41.989Z,12.23
2022-09-30T20:05:09.474Z,12.22
2022-09-30T20:07:36.388Z,12.21
2022-09-30T20:10:03.903Z,12.22
2022-09-30T20:12:30.757Z,12.21
2022-09-30T20:15:16.613Z,12.14
2022-09-30T20:17:43.588Z,12.16
2022-09-30T20:20:29.379Z,12.13
2022-09-30T20:22:59.835Z,12.09
2022-09-30T20:25:27.000Z,12.07
2022-09-30T20:27:54.075Z,12.07
2022-09-30T20:30:21.012Z,12.17
2022-09-30T20:32:47.925Z,12.38
2022-09-30T20:35:14.894Z,12.45
2022-09-30T20:37:42.473Z,12.44
2022-09-30T20:40:09.822Z,12.39
2022-09-30T20:42:38.365Z,12.35
2022-09-30T20:45:10.067Z,12.33
2022-09-30T20:47:43.834Z,12.29
2022-09-30T20:50:12.767Z,12.27
2022-09-30T20:52:39.637Z,12.16
2022-09-30T20:55:08.016Z,12.15
2022-09-30T20:57:34.883Z,12.17
2022-09-30T21:00:02.161Z,12.14
2022-09-30T21:02:30.019Z,12.16
2022-09-30T21:04:58.015Z,12.18
2022-09-30T21:07:26.035Z,12.23
2022-09-30T21:09:53.078Z,12.25
2022-09-30T21:12:20.149Z,12.25
2022-09-30T21:14:47.035Z,12.31
2022-09-30T21:17:14.043Z,12.37
2022-09-30T21:19:40.960Z,12.38
2022-09-30T21:22:08.049Z,12.37
2022-09-30T21:24:35.089Z,12.46
2022-09-30T21:27:05.642Z,12.54
2022-09-30T21:29:32.784Z,12.59
2022-09-30T21:31:59.843Z,12.58
2022-09-30T21:34:27.078Z,12.62
2022-09-30T21:36:53.983Z,12.59
2022-09-30T21:39:20.982Z,12.61
2022-09-30T21:41:48.203Z,12.57
2022-09-30T21:44:15.960Z,12.57
2022-09-30T21:46:48.195Z,12.54
2022-09-30T21:49:22.945Z,12.55
2022-09-30T21:51:52.866Z,12.51
2022-09-30T21:54:20.093Z,12.55
2022-09-30T21:56:48.396Z,12.56
2022-09-30T21:59:15.751Z,12.61
2022-09-30T22:01:42.971Z,12.61
2022-09-30T22:04:09.923Z,12.59
2022-09-30T22:06:36.823Z,12.60
2022-09-30T22:09:05.208Z,12.55
2022-09-30T22:11:33.102Z,12.58
2022-09-30T22:14:00.590Z,12.58
2022-09-30T22:16:31.967Z,12.59
2022-09-30T22:19:01.370Z,12.54
2022-09-30T22:21:34.066Z,12.55
2022-09-30T22:24:03.303Z,12.58
2022-09-30T22:26:31.791Z,12.60
2022-09-30T22:29:03.033Z,12.76
2022-09-30T22:31:32.871Z,12.77
2022-09-30T22:34:23.645Z,12.75
2022-09-30T22:37:10.252Z,12.71
2022-09-30T22:39:37.163Z,12.69
2022-09-30T22:42:04.338Z,12.67
2022-09-30T22:44:36.942Z,12.66
2022-09-30T22:47:05.192Z,12.67
2022-09-30T22:49:41.382Z,12.67
2022-09-30T22:52:09.180Z,12.68
2022-09-30T22:54:36.796Z,12.71
2022-09-30T22:57:07.718Z,12.69
2022-09-30T22:59:34.794Z,12.70
2022-09-30T23:02:01.888Z,12.66
2022-09-30T23:04:29.034Z,12.65
2022-09-30T23:06:55.923Z,12.66
2022-09-30T23:09:22.980Z,12.63
2022-09-30T23:11:53.581Z,12.68
2022-09-30T23:14:21.754Z,12.65
2022-09-30T23:16:49.797Z,12.66
2022-09-30T23:19:17.488Z,12.68
2022-09-30T23:21:44.419Z,12.67
2022-09-30T23:24:12.072Z,12.68
2022-09-30T23:26:39.616Z,12.66
2022-09-30T23:29:11.164Z,12.66
2022-09-30T23:31:38.819Z,12.64
2022-09-30T23:34:06.461Z,12.63
2022-09-30T23:36:36.348Z,12.61
2022-09-30T23:39:20.238Z,12.59
2022-09-30T23:41:48.874Z,12.60
2022-09-30T23:44:20.056Z,12.60
2022-09-30T23:47:06.970Z,12.62
2022-09-30T23:49:37.552Z,12.59
2022-09-30T23:52:12.444Z,12.60
2022-09-30T23:54:41.425Z,12.59
2022-09-30T23:57:08.651Z,12.59
2022-09-30T23:59:35.541Z,12.59
